createdAt,value
2018-08-22T06:12:34.128Z,44.50
2018-08-22T06:15:03.905Z,44.10
2018-08-22T06:17:33.744Z,44.40
2018-08-22T06:20:03.461Z,44.60
2018-08-22T06:22:33.285Z,45.60
2018-08-22T06:25:02.609Z,46.20
2018-08-22T06:27:32.213Z,45.80
2018-08-22T06:30:01.877Z,44.90
2018-08-22T06:32:31.679Z,44.60
2018-08-22T06:35:01.121Z,45.10
2018-08-22T06:37:30.640Z,45.50
2018-08-22T06:40:00.131Z,45.10
2018-08-22T06:42:29.641Z,45.20
2018-08-22T06:44:59.181Z,45.30
2018-08-22T06:47:28.405Z,45.20
2018-08-22T06:49:57.626Z,44.80
2018-08-22T06:52:27.002Z,44.90
2018-08-22T06:54:56.148Z,45.00
2018-08-22T06:57:25.329Z,44.90
2018-08-22T06:59:54.447Z,44.80
2018-08-22T07:02:23.483Z,44.50
2018-08-22T07:04:52.641Z,44.30
2018-08-22T07:07:22.005Z,44.30
2018-08-22T07:09:51.138Z,43.90
2018-08-22T07:12:20.295Z,44.30
2018-08-22T07:14:49.439Z,43.90
2018-08-22T07:17:18.541Z,43.60
2018-08-22T07:19:47.789Z,43.80
2018-08-22T07:22:16.846Z,43.60
2018-08-22T07:24:46.166Z,43.00
2018-08-22T07:27:15.333Z,43.40
2018-08-22T07:29:44.484Z,43.00
2018-08-22T07:32:13.699Z,42.90
2018-08-22T07:34:42.697Z,42.90
2018-08-22T07:37:11.879Z,42.90
2018-08-22T07:39:41.098Z,42.90
2018-08-22T07:42:11.672Z,42.70
2018-08-22T07:44:40.802Z,42.40
2018-08-22T07:47:09.940Z,42.20
2018-08-22T07:49:39.058Z,42.20
2018-08-22T07:52:08.284Z,42.00
2018-08-22T07:54:41.718Z,42.30
2018-08-22T07:57:12.354Z,42.10
2018-08-22T07:59:41.493Z,42.20
2018-08-22T08:02:10.642Z,43.10
2018-08-22T08:04:39.839Z,42.00
2018-08-22T08:07:09.001Z,42.00
2018-08-22T08:09:38.503Z,42.10
2018-08-22T08:12:07.518Z,42.00
2018-08-22T08:21:02.961Z,42.10
2018-08-22T08:23:32.053Z,42.00
2018-08-22T08:26:01.196Z,42.10
2018-08-22T08:28:31.096Z,42.00
2018-08-22T08:31:00.118Z,41.60
2018-08-22T08:33:29.145Z,41.60
2018-08-22T08:35:58.418Z,41.50
2018-08-22T08:38:27.666Z,41.60
2018-08-22T08:40:56.910Z,41.70
2018-08-22T08:43:26.951Z,42.00
2018-08-22T08:45:56.090Z,41.50
2018-08-22T08:48:25.235Z,41.40
2018-08-22T08:50:54.402Z,41.40
2018-08-22T08:53:23.605Z,41.30
2018-08-22T08:55:52.788Z,41.50
2018-08-22T08:58:21.989Z,41.50
2018-08-22T09:00:51.227Z,41.40
2018-08-22T09:03:26.948Z,41.50
2018-08-22T09:05:56.090Z,41.40
2018-08-22T09:08:25.270Z,41.50
2018-08-22T09:10:54.560Z,41.80
2018-08-22T09:13:23.648Z,41.50
2018-08-22T09:15:52.895Z,41.60
2018-08-22T09:18:22.119Z,41.60
2018-08-22T09:20:51.216Z,41.60
2018-08-22T09:23:20.409Z,41.60
2018-08-22T09:25:49.595Z,41.60
2018-08-22T09:28:18.601Z,41.70
2018-08-22T09:30:47.784Z,41.30
2018-08-22T09:33:16.998Z,41.20
2018-08-22T09:35:46.189Z,41.50
2018-08-22T09:38:15.236Z,41.50
2018-08-22T09:40:44.295Z,41.40
2018-08-22T09:43:13.423Z,41.20
2018-08-22T09:45:42.569Z,41.50
2018-08-22T09:48:12.946Z,41.30
2018-08-22T09:50:42.049Z,41.70
2018-08-22T09:53:11.112Z,41.50
2018-08-22T09:55:40.380Z,41.10
2018-08-22T09:58:09.478Z,41.30
2018-08-22T10:00:42.790Z,41.40
2018-08-22T10:03:11.845Z,41.20
2018-08-22T10:05:41.037Z,41.10
2018-08-22T10:08:10.295Z,41.30
2018-08-22T10:10:39.238Z,41.50
2018-08-22T10:13:08.272Z,41.60
2018-08-22T10:15:37.514Z,41.30
2018-08-22T10:18:06.567Z,41.40
2018-08-22T10:20:36.099Z,41.70
2018-08-22T10:23:05.412Z,41.60
2018-08-22T10:25:34.666Z,41.30
2018-08-22T10:28:03.965Z,41.50
2018-08-22T10:30:33.095Z,41.50
2018-08-22T10:33:02.754Z,41.40
2018-08-22T10:35:32.443Z,41.50
2018-08-22T10:38:01.889Z,41.30
2018-08-22T10:40:37.366Z,41.20
2018-08-22T10:43:06.537Z,41.10
2018-08-22T10:45:36.180Z,41.30
2018-08-22T10:48:05.411Z,41.00
2018-08-22T10:50:34.467Z,40.80
2018-08-22T10:53:03.828Z,40.60
2018-08-22T10:55:33.102Z,41.00
2018-08-22T10:58:02.573Z,41.10
2018-08-22T11:00:32.249Z,40.90
2018-08-22T11:03:01.912Z,41.40
2018-08-22T11:05:31.237Z,40.60
2018-08-22T11:08:00.601Z,40.80
2018-08-22T11:10:29.724Z,40.60
2018-08-22T11:12:59.181Z,40.40
2018-08-22T11:15:28.971Z,40.20
2018-08-22T11:17:58.259Z,40.40
2018-08-22T11:20:29.602Z,40.60
2018-08-22T11:23:07.420Z,39.90
2018-08-22T11:25:45.570Z,39.80
2018-08-22T11:28:23.412Z,39.80
2018-08-22T11:31:01.609Z,39.70
2018-08-22T11:33:40.475Z,39.80
2018-08-22T11:36:08.329Z,39.40
2018-08-22T11:38:37.598Z,39.30
2018-08-22T11:41:06.726Z,39.30
2018-08-22T11:43:35.953Z,39.20
2018-08-22T11:46:05.146Z,39.20
2018-08-22T11:48:34.341Z,39.30
2018-08-22T11:51:03.544Z,39.50
2018-08-22T11:53:32.824Z,39.40
2018-08-22T11:56:01.915Z,39.30
2018-08-22T11:58:31.135Z,39.10
2018-08-22T12:01:00.682Z,39.10
2018-08-22T12:03:29.812Z,38.80
2018-08-22T12:05:58.877Z,38.80
2018-08-22T12:08:28.305Z,38.80
2018-08-22T12:10:57.577Z,39.50
2018-08-22T12:13:26.751Z,38.80
2018-08-22T12:15:56.029Z,38.80
2018-08-22T12:18:25.263Z,39.00
2018-08-22T12:20:54.559Z,38.90
2018-08-22T12:23:23.956Z,38.90
2018-08-22T12:25:53.129Z,38.60
2018-08-22T12:28:22.371Z,38.40
2018-08-22T12:30:51.714Z,38.80
2018-08-22T12:33:20.797Z,38.80
2018-08-22T12:35:49.930Z,38.60
2018-08-22T12:38:19.267Z,39.10
2018-08-22T12:40:48.507Z,38.90
2018-08-22T12:43:18.744Z,38.40
2018-08-22T12:45:47.789Z,38.40
2018-08-22T12:48:16.886Z,38.80
2018-08-22T12:50:45.948Z,38.60
2018-08-22T12:53:15.171Z,38.00
2018-08-22T12:55:44.272Z,37.80
2018-08-22T12:58:14.556Z,38.10
2018-08-22T13:00:43.755Z,37.50
2018-08-22T13:03:12.909Z,37.80
2018-08-22T13:05:41.937Z,37.70
2018-08-22T13:08:11.147Z,37.90
2018-08-22T13:10:40.295Z,38.00
2018-08-22T13:13:09.516Z,37.70
2018-08-22T13:15:38.674Z,37.50
2018-08-22T13:18:07.902Z,37.40
2018-08-22T13:20:37.125Z,36.80
2018-08-22T13:23:06.638Z,36.50
2018-08-22T13:25:36.027Z,36.00
2018-08-22T13:28:05.613Z,36.30
2018-08-22T13:30:34.782Z,36.00
2018-08-22T13:33:04.037Z,36.00
2018-08-22T13:35:33.308Z,35.70
2018-08-22T13:38:02.517Z,35.60
2018-08-22T13:40:31.658Z,35.80
2018-08-22T13:43:00.732Z,36.00
2018-08-22T13:45:29.982Z,36.00
2018-08-22T13:47:59.212Z,35.80
2018-08-22T13:50:28.422Z,35.40
2018-08-22T13:52:58.055Z,35.10
2018-08-22T13:55:27.731Z,35.30
2018-08-22T13:57:56.981Z,35.60
2018-08-22T14:00:26.384Z,36.00
2018-08-22T14:02:55.756Z,35.90
2018-08-22T14:05:25.290Z,35.60
2018-08-22T14:07:55.349Z,35.80
2018-08-22T14:10:24.469Z,35.70
2018-08-22T14:12:53.935Z,35.70
2018-08-22T14:15:23.276Z,35.50
2018-08-22T14:17:52.724Z,35.60
2018-08-22T14:20:22.235Z,35.50
2018-08-22T14:22:51.595Z,35.50
2018-08-22T14:25:20.825Z,35.70
2018-08-22T14:27:49.926Z,35.60
2018-08-22T14:30:19.000Z,35.40
2018-08-22T14:32:48.207Z,35.50
2018-08-22T14:35:17.298Z,35.50
2018-08-22T14:37:46.511Z,35.80
2018-08-22T14:40:15.775Z,35.70
2018-08-22T14:42:45.217Z,35.60
2018-08-22T14:45:15.534Z,35.40
2018-08-22T14:47:44.957Z,35.70
2018-08-22T14:50:14.084Z,35.80
2018-08-22T14:52:43.370Z,36.10
2018-08-22T14:55:13.259Z,36.10
2018-08-22T14:57:42.712Z,36.10
2018-08-22T15:00:12.288Z,36.20
2018-08-22T15:02:41.741Z,36.20
2018-08-22T15:05:10.962Z,36.00
2018-08-22T15:07:40.006Z,35.90
2018-08-22T15:10:09.003Z,35.70
2018-08-22T15:12:38.422Z,36.30
2018-08-22T15:15:07.764Z,35.80
2018-08-22T15:17:37.180Z,35.80
2018-08-22T15:20:06.432Z,36.00
2018-08-22T15:22:36.130Z,35.70
2018-08-22T15:25:05.968Z,35.80
